RNL weather

Rennell/Tingoa Airport
Rennell Island, Rennell and Bellona, Solomon Islands

Public forecast

Using degrees Celsius for public forecast. Weather courtesy of forecast.io.

METAR (pilot weather report)

Closest report is Honiara International Airport, 126.4 nm (234.2 km) N. Retrieved 2019/07/20 16:00 UTC (1 hour ago):

AGGH 201600Z 16004KT 9999 FEW015 OVC300 22/23 Q1009

TAF (pilot weather forecast)

Forecast is more than 12 hours old.

Retrieved 2019/04/06 00:10 UTC (4 months ago):

TAF AGGR 062310Z 0700/0724 11015KT 9999 -SHDZ SCT018 SCT028 Q 1012 1010 1009 1011